createdAt,value
2022-07-28T00:01:14.026Z,15.10
2022-07-28T00:03:46.047Z,15.10
2022-07-28T00:06:13.955Z,15.20
2022-07-28T00:08:43.177Z,15.10
2022-07-28T00:11:11.027Z,15.10
2022-07-28T00:13:38.899Z,15.10
2022-07-28T00:16:07.542Z,15.20
2022-07-28T00:18:35.494Z,15.20
2022-07-28T00:21:03.448Z,15.20
2022-07-28T00:23:33.951Z,15.10
2022-07-28T00:26:09.103Z,15.20
2022-07-28T00:28:37.198Z,15.10
2022-07-28T00:31:07.234Z,15.30
2022-07-28T00:33:36.885Z,15.30
2022-07-28T00:36:05.428Z,15.30
2022-07-28T00:38:34.367Z,15.30
2022-07-28T00:41:12.157Z,15.20
2022-07-28T00:43:43.301Z,15.30
2022-07-28T00:46:11.827Z,15.30
2022-07-28T00:48:40.210Z,15.30
2022-07-28T00:51:09.897Z,15.30
2022-07-28T00:53:38.246Z,15.30
2022-07-28T00:56:07.333Z,15.20
2022-07-28T00:58:35.895Z,15.20
2022-07-28T01:01:05.443Z,15.30
2022-07-28T01:03:34.700Z,15.30
2022-07-28T01:06:10.959Z,15.40
2022-07-28T01:08:50.544Z,15.40
2022-07-28T01:11:25.744Z,15.30
2022-07-28T01:14:01.502Z,15.30
2022-07-28T01:16:31.078Z,15.30
2022-07-28T01:19:05.543Z,15.40
2022-07-28T01:21:36.153Z,15.30
2022-07-28T01:24:11.247Z,15.30
2022-07-28T01:26:46.981Z,15.30
2022-07-28T01:29:22.400Z,15.20
2022-07-28T01:31:57.409Z,15.30
2022-07-28T01:34:31.852Z,15.30
2022-07-28T01:37:05.404Z,15.30
2022-07-28T01:39:36.183Z,15.20
2022-07-28T01:42:07.094Z,15.10
2022-07-28T01:44:39.165Z,15.10
2022-07-28T01:47:09.241Z,15.20
2022-07-28T01:49:37.977Z,15.30
2022-07-28T01:52:09.522Z,15.30
2022-07-28T01:54:41.323Z,15.20
2022-07-28T01:57:14.541Z,15.20
2022-07-28T01:59:43.629Z,15.20
2022-07-28T02:02:14.366Z,15.30
2022-07-28T02:04:43.999Z,15.20
2022-07-28T02:07:12.844Z,15.30
2022-07-28T02:09:43.139Z,15.20
2022-07-28T02:12:13.894Z,15.20
2022-07-28T02:14:43.190Z,15.30
2022-07-28T02:17:15.183Z,15.30
2022-07-28T02:19:45.898Z,15.20
2022-07-28T02:22:14.705Z,15.20
2022-07-28T02:24:44.359Z,15.10
2022-07-28T02:27:17.577Z,15.20
2022-07-28T02:29:51.399Z,15.10
2022-07-28T02:32:28.512Z,15.10
2022-07-28T02:35:01.823Z,15.20
2022-07-28T02:37:35.996Z,15.20
2022-07-28T02:40:05.458Z,15.10
2022-07-28T02:42:36.348Z,15.10
2022-07-28T02:45:08.590Z,15.10
2022-07-28T02:47:42.278Z,15.10
2022-07-28T02:50:13.672Z,15.10
2022-07-28T02:52:44.017Z,15.10
2022-07-28T02:55:13.531Z,15.10
2022-07-28T02:57:42.809Z,15.00
2022-07-28T03:00:12.316Z,15.10
2022-07-28T03:02:46.739Z,15.00
2022-07-28T03:05:15.778Z,15.00
2022-07-28T03:07:50.550Z,15.00
2022-07-28T03:10:33.398Z,14.90
2022-07-28T03:13:04.158Z,14.90
2022-07-28T03:15:32.351Z,14.90
2022-07-28T03:18:02.196Z,15.00
2022-07-28T03:20:30.420Z,14.90
2022-07-28T03:22:59.062Z,15.00
2022-07-28T03:25:31.130Z,14.90
2022-07-28T03:28:00.294Z,14.90
2022-07-28T03:30:32.724Z,14.90
2022-07-28T03:33:04.500Z,14.90
2022-07-28T03:35:36.206Z,14.90
2022-07-28T03:38:08.937Z,14.90
2022-07-28T03:40:38.639Z,14.80
2022-07-28T03:43:09.560Z,14.90
2022-07-28T03:45:40.939Z,14.90
2022-07-28T03:48:10.400Z,14.90
2022-07-28T03:50:38.271Z,14.90
2022-07-28T03:53:14.686Z,14.90
2022-07-28T03:55:42.536Z,14.80
2022-07-28T03:58:10.375Z,14.80
2022-07-28T04:00:38.465Z,14.80
2022-07-28T04:03:35.134Z,14.80
2022-07-28T04:05:57.770Z,14.90
2022-07-28T04:08:25.638Z,14.80
2022-07-28T04:10:53.955Z,14.80
2022-07-28T04:13:21.846Z,14.90
2022-07-28T04:15:49.690Z,14.90
2022-07-28T04:18:18.489Z,14.90
2022-07-28T04:20:46.920Z,14.90
2022-07-28T04:23:16.194Z,14.90
2022-07-28T04:25:44.137Z,15.00
2022-07-28T04:28:11.993Z,14.90
2022-07-28T04:30:44.253Z,14.90
2022-07-28T04:33:13.028Z,14.90
2022-07-28T04:35:40.972Z,15.00
2022-07-28T04:38:08.844Z,15.00
2022-07-28T04:40:39.021Z,15.10
2022-07-28T04:43:06.983Z,15.00
2022-07-28T04:45:35.016Z,15.00
2022-07-28T04:48:02.992Z,15.10
2022-07-28T04:50:30.837Z,15.10
2022-07-28T04:52:59.023Z,15.10
2022-07-28T04:55:27.323Z,15.20
2022-07-28T04:57:56.553Z,15.20
2022-07-28T05:00:24.692Z,15.20
2022-07-28T05:02:52.660Z,15.20
2022-07-28T05:05:20.515Z,15.20
2022-07-28T05:07:48.389Z,15.20
2022-07-28T05:10:16.336Z,15.30
2022-07-28T05:12:45.306Z,15.20
2022-07-28T05:15:14.811Z,15.20
2022-07-28T05:17:42.725Z,15.20
2022-07-28T05:20:13.508Z,15.30
2022-07-28T05:22:46.328Z,15.30
2022-07-28T05:25:15.918Z,15.30
2022-07-28T05:27:43.742Z,15.30
2022-07-28T05:30:12.516Z,15.30
2022-07-28T05:32:41.965Z,15.30
2022-07-28T05:35:10.731Z,15.40
2022-07-28T05:37:39.338Z,15.40
2022-07-28T05:40:11.875Z,15.40
2022-07-28T05:42:40.630Z,15.40
2022-07-28T05:45:14.987Z,15.40
2022-07-28T05:47:47.842Z,15.40
2022-07-28T05:50:17.112Z,15.50
2022-07-28T05:52:45.683Z,15.60
2022-07-28T05:55:14.008Z,15.60
2022-07-28T05:57:42.739Z,15.60
2022-07-28T06:00:13.435Z,15.70
2022-07-28T06:02:41.846Z,15.70
2022-07-28T06:05:11.709Z,15.70
2022-07-28T06:07:43.427Z,15.70
2022-07-28T06:10:12.857Z,15.70
2022-07-28T06:12:42.093Z,15.80
2022-07-28T06:15:14.258Z,15.80
2022-07-28T06:17:42.400Z,15.70
2022-07-28T06:20:13.372Z,15.70
2022-07-28T06:22:45.053Z,15.80
2022-07-28T06:25:15.015Z,15.80
2022-07-28T06:27:43.205Z,15.80
2022-07-28T06:30:12.099Z,15.90
2022-07-28T06:32:39.948Z,16.00
2022-07-28T06:35:09.045Z,16.00
2022-07-28T06:37:38.466Z,15.90
2022-07-28T06:40:08.051Z,16.00
2022-07-28T06:42:36.073Z,16.00
2022-07-28T06:45:04.209Z,16.00
2022-07-28T06:47:32.116Z,16.10
2022-07-28T06:50:00.049Z,16.20
2022-07-28T06:52:28.160Z,16.20
2022-07-28T06:54:59.941Z,16.30
2022-07-28T06:57:33.632Z,16.30
2022-07-28T07:00:04.057Z,16.30
2022-07-28T07:02:31.888Z,16.30
2022-07-28T07:04:59.707Z,16.40
2022-07-28T07:07:27.610Z,16.40
2022-07-28T07:09:55.517Z,16.50
2022-07-28T07:12:24.825Z,16.40
2022-07-28T07:14:54.047Z,16.40
2022-07-28T07:17:21.895Z,16.40
2022-07-28T07:19:49.711Z,16.50
2022-07-28T07:22:18.006Z,16.50
2022-07-28T07:24:45.953Z,16.50
2022-07-28T07:27:13.927Z,16.50
2022-07-28T07:29:43.127Z,16.50
2022-07-28T07:32:11.226Z,16.50
2022-07-28T07:34:40.340Z,16.50
2022-07-28T07:37:12.048Z,16.60
2022-07-28T07:39:40.064Z,16.60
2022-07-28T07:42:08.241Z,16.60
2022-07-28T07:44:36.272Z,16.70
2022-07-28T07:47:05.790Z,16.70
2022-07-28T07:49:45.305Z,16.80
2022-07-28T07:52:14.535Z,16.80
2022-07-28T07:54:42.931Z,16.90
2022-07-28T07:57:11.063Z,17.00
2022-07-28T07:59:38.935Z,17.00
2022-07-28T08:02:08.374Z,17.10
2022-07-28T08:04:37.500Z,17.10
2022-07-28T08:07:06.587Z,17.20
2022-07-28T08:09:34.624Z,17.20
2022-07-28T08:12:02.720Z,17.30
2022-07-28T08:14:30.675Z,17.40
2022-07-28T08:16:59.467Z,17.50
2022-07-28T08:19:28.744Z,17.70
2022-07-28T08:21:56.619Z,18.00
2022-07-28T08:24:32.847Z,18.20
2022-07-28T08:27:02.247Z,18.40
2022-07-28T08:29:30.172Z,18.60
2022-07-28T08:31:58.766Z,18.90
2022-07-28T08:34:33.118Z,18.90
2022-07-28T08:37:03.594Z,18.90
2022-07-28T08:39:31.959Z,19.10
2022-07-28T08:42:03.226Z,19.30
2022-07-28T08:44:34.723Z,19.40
2022-07-28T08:47:03.338Z,19.50
2022-07-28T08:49:33.684Z,19.80
2022-07-28T08:52:09.715Z,20.00
2022-07-28T08:54:38.493Z,20.20
2022-07-28T08:57:06.520Z,20.30
2022-07-28T09:02:02.692Z,20.40
2022-07-28T09:04:34.153Z,20.80
2022-07-28T09:07:02.116Z,20.90
2022-07-28T09:09:30.148Z,20.90
2022-07-28T09:11:58.052Z,21.10
2022-07-28T09:14:26.912Z,21.30
2022-07-28T09:16:54.922Z,21.30
2022-07-28T09:19:22.777Z,21.40
2022-07-28T09:21:52.373Z,21.50
2022-07-28T09:24:38.340Z,21.60
2022-07-28T09:27:08.133Z,21.80
2022-07-28T09:29:36.301Z,21.80
2022-07-28T09:32:05.008Z,22.00
2022-07-28T09:34:41.315Z,22.00
2022-07-28T09:37:23.328Z,22.10
2022-07-28T09:39:58.802Z,22.10
2022-07-28T09:42:26.961Z,22.10
2022-07-28T09:45:22.420Z,22.00
2022-07-28T09:48:08.571Z,21.90
2022-07-28T09:50:36.900Z,22.00
2022-07-28T09:53:22.102Z,21.90
2022-07-28T09:55:57.856Z,21.80
2022-07-28T09:58:26.813Z,21.70
2022-07-28T10:01:04.711Z,21.70
2022-07-28T10:03:35.461Z,21.50
2022-07-28T10:06:08.270Z,21.40
2022-07-28T10:08:45.958Z,21.40
2022-07-28T10:11:15.786Z,21.40
2022-07-28T10:14:02.775Z,21.60
2022-07-28T10:16:31.843Z,21.60
2022-07-28T10:19:01.389Z,21.50
2022-07-28T10:21:32.870Z,21.30
2022-07-28T10:24:06.975Z,21.20
2022-07-28T10:26:39.094Z,21.30
2022-07-28T10:29:08.428Z,21.50
2022-07-28T10:31:42.088Z,21.40
2022-07-28T10:34:16.413Z,21.40
2022-07-28T10:36:45.295Z,21.40
2022-07-28T10:39:19.748Z,21.50
2022-07-28T10:41:48.047Z,21.60
2022-07-28T10:44:18.497Z,21.70
2022-07-28T10:46:47.534Z,21.70
2022-07-28T10:49:16.186Z,21.80
2022-07-28T10:52:06.255Z,21.80
2022-07-28T10:54:43.576Z,21.80
2022-07-28T10:57:13.598Z,21.80
2022-07-28T11:00:12.864Z,21.90
2022-07-28T11:02:46.670Z,22.00
2022-07-28T11:05:34.979Z,22.30
2022-07-28T11:08:06.440Z,22.30
2022-07-28T11:10:47.422Z,22.30
2022-07-28T11:13:32.763Z,22.10
2022-07-28T11:16:20.346Z,22.30
2022-07-28T11:19:07.842Z,22.30
2022-07-28T11:22:30.421Z,22.30
2022-07-28T11:25:18.538Z,22.30
2022-07-28T11:28:06.795Z,22.40
2022-07-28T11:30:58.166Z,22.30
2022-07-28T11:33:46.860Z,22.60
2022-07-28T11:36:15.150Z,22.60
2022-07-28T11:39:21.303Z,22.70
2022-07-28T11:41:49.179Z,22.60
2022-07-28T11:44:27.047Z,22.50
2022-07-28T11:46:55.761Z,22.50
2022-07-28T11:49:27.467Z,22.40
2022-07-28T11:52:12.915Z,22.50
2022-07-28T11:54:44.113Z,22.50
2022-07-28T11:57:12.060Z,22.50
2022-07-28T11:59:51.272Z,22.40
2022-07-28T12:02:21.606Z,22.40
2022-07-28T12:05:07.395Z,22.50
2022-07-28T12:07:38.273Z,22.50
2022-07-28T12:10:54.117Z,22.50
2022-07-28T12:13:28.619Z,22.50
2022-07-28T12:15:58.139Z,22.70
2022-07-28T12:18:26.288Z,22.90
2022-07-28T12:20:55.544Z,23.10
2022-07-28T12:23:39.133Z,23.20
2022-07-28T12:26:31.392Z,23.40
2022-07-28T12:29:00.149Z,23.60
2022-07-28T12:31:33.287Z,23.60
2022-07-28T12:34:01.635Z,23.70
2022-07-28T12:36:30.036Z,23.70
2022-07-28T12:38:58.530Z,23.40
2022-07-28T12:41:33.516Z,23.30
2022-07-28T12:44:05.810Z,23.20
2022-07-28T12:46:35.419Z,23.00
2022-07-28T12:49:03.629Z,23.00
2022-07-28T12:51:32.971Z,23.00
2022-07-28T12:54:00.831Z,23.20
2022-07-28T12:56:28.857Z,23.40
2022-07-28T12:59:07.283Z,23.50
2022-07-28T13:01:51.348Z,23.50
2022-07-28T13:04:39.533Z,23.50
2022-07-28T13:07:10.417Z,23.50
2022-07-28T13:09:41.650Z,23.70
2022-07-28T13:12:20.875Z,23.70
2022-07-28T13:14:52.137Z,23.80
2022-07-28T13:17:22.834Z,23.70
2022-07-28T13:19:51.232Z,23.40
2022-07-28T13:22:29.313Z,23.10
2022-07-28T13:24:57.958Z,23.10
2022-07-28T13:27:26.691Z,23.00
2022-07-28T13:29:55.971Z,22.90
2022-07-28T13:32:25.337Z,23.10
2022-07-28T13:34:53.910Z,23.20
2022-07-28T13:37:22.019Z,23.20
2022-07-28T13:39:54.502Z,23.30
2022-07-28T13:42:23.712Z,23.40
2022-07-28T13:44:52.229Z,23.60
2022-07-28T13:47:20.826Z,23.70
2022-07-28T13:49:50.657Z,23.70
2022-07-28T13:52:32.874Z,23.50
2022-07-28T13:55:03.978Z,23.40
2022-07-28T13:57:33.790Z,23.30
2022-07-28T14:00:06.692Z,23.40
2022-07-28T14:02:36.072Z,23.40
2022-07-28T14:05:06.849Z,23.50
2022-07-28T14:07:35.305Z,23.60
2022-07-28T14:10:03.397Z,23.90
2022-07-28T14:12:37.489Z,24.00
2022-07-28T14:15:09.626Z,24.00
2022-07-28T14:17:44.203Z,23.90
2022-07-28T14:20:15.581Z,23.80
2022-07-28T14:22:43.613Z,23.70
2022-07-28T14:25:11.976Z,23.70
2022-07-28T14:27:47.427Z,23.70
2022-07-28T14:30:15.310Z,23.70
2022-07-28T14:32:43.207Z,23.70
2022-07-28T14:35:11.084Z,23.60
2022-07-28T14:38:11.587Z,23.60
2022-07-28T14:40:28.168Z,23.70
2022-07-28T14:42:56.071Z,23.70
2022-07-28T14:45:23.910Z,23.70
2022-07-28T14:47:52.421Z,23.70
2022-07-28T14:50:20.386Z,23.70
2022-07-28T14:52:49.611Z,23.50
2022-07-28T14:55:17.814Z,23.50
2022-07-28T14:57:52.242Z,23.40
2022-07-28T15:00:24.106Z,23.50
2022-07-28T15:02:52.981Z,23.40
2022-07-28T15:05:22.025Z,23.40
2022-07-28T15:07:52.704Z,23.40
2022-07-28T15:10:21.454Z,23.30
2022-07-28T15:12:50.041Z,23.20
2022-07-28T15:15:18.254Z,23.00
2022-07-28T15:17:46.095Z,22.90
2022-07-28T15:20:14.224Z,23.00
2022-07-28T15:22:42.075Z,23.00
2022-07-28T15:25:11.567Z,23.00
2022-07-28T15:27:44.427Z,22.90
2022-07-28T15:30:14.292Z,22.80
2022-07-28T15:32:55.743Z,22.70
2022-07-28T15:35:24.507Z,22.60
2022-07-28T15:37:52.359Z,22.40
2022-07-28T15:40:22.132Z,22.20
2022-07-28T15:42:50.007Z,21.90
2022-07-28T15:45:18.131Z,21.70
2022-07-28T15:47:45.968Z,21.60
2022-07-28T15:50:13.828Z,21.50
2022-07-28T15:52:41.729Z,21.40
2022-07-28T15:55:10.298Z,21.30
2022-07-28T15:57:39.707Z,21.20
2022-07-28T16:00:10.803Z,20.90
2022-07-28T16:02:38.690Z,20.70
2022-07-28T16:05:06.976Z,20.80
2022-07-28T16:07:35.676Z,20.70
2022-07-28T16:10:04.012Z,20.60
2022-07-28T16:12:32.124Z,20.40
2022-07-28T16:15:01.310Z,20.30
2022-07-28T16:17:29.102Z,20.20
2022-07-28T16:19:58.688Z,20.10
2022-07-28T16:22:30.433Z,20.10
2022-07-28T16:24:58.376Z,20.10
2022-07-28T16:27:26.420Z,20.10
2022-07-28T16:29:54.408Z,20.10
2022-07-28T16:32:23.877Z,20.00
2022-07-28T16:34:53.834Z,20.00
2022-07-28T16:37:22.336Z,19.90
2022-07-28T16:39:50.219Z,19.80
2022-07-28T16:42:18.310Z,19.90
2022-07-28T16:44:46.881Z,19.90
2022-07-28T16:47:14.848Z,19.80
2022-07-28T16:49:46.279Z,19.80
2022-07-28T16:52:14.745Z,19.70
2022-07-28T16:54:42.799Z,19.70
2022-07-28T16:57:10.766Z,19.60
2022-07-28T16:59:48.475Z,19.60
2022-07-28T17:02:17.901Z,19.50
2022-07-28T17:04:48.042Z,19.50
2022-07-28T17:07:16.493Z,19.50
2022-07-28T17:09:44.852Z,19.40
2022-07-28T17:12:12.711Z,19.40
2022-07-28T17:14:40.550Z,19.30
2022-07-28T17:17:09.075Z,19.20
2022-07-28T17:19:39.814Z,19.20
2022-07-28T17:22:12.799Z,19.20
2022-07-28T17:24:40.879Z,19.10
2022-07-28T17:29:57.904Z,19.10
2022-07-28T17:32:25.867Z,19.00
2022-07-28T17:34:54.279Z,19.00
2022-07-28T17:37:23.907Z,19.10
2022-07-28T17:39:52.240Z,19.10
2022-07-28T17:42:20.281Z,19.00
2022-07-28T17:44:48.685Z,18.90
2022-07-28T17:47:16.839Z,18.90
2022-07-28T17:49:45.650Z,18.90
2022-07-28T17:52:13.733Z,18.90
2022-07-28T17:55:00.745Z,18.90
2022-07-28T17:57:32.127Z,18.90
2022-07-28T18:00:07.230Z,18.90
2022-07-28T18:02:39.923Z,18.90
2022-07-28T18:05:10.124Z,18.80
2022-07-28T18:07:50.162Z,18.80
2022-07-28T18:10:24.868Z,18.70
2022-07-28T18:12:55.312Z,18.70
2022-07-28T18:15:23.172Z,18.70
2022-07-28T18:17:55.220Z,18.60
2022-07-28T18:20:24.164Z,18.60
2022-07-28T18:22:52.157Z,18.60
2022-07-28T18:25:21.777Z,18.60
2022-07-28T18:27:49.906Z,18.60
2022-07-28T18:30:18.228Z,18.70
2022-07-28T18:32:46.098Z,18.70
2022-07-28T18:35:14.271Z,18.70
2022-07-28T18:37:45.955Z,18.60
2022-07-28T18:40:16.386Z,18.60
2022-07-28T18:42:46.847Z,18.60
2022-07-28T18:45:15.404Z,18.60
2022-07-28T18:47:46.535Z,18.70
2022-07-28T18:50:31.204Z,18.80
2022-07-28T18:53:00.284Z,18.70
2022-07-28T18:57:57.885Z,18.70
2022-07-28T19:00:25.919Z,18.60
2022-07-28T19:02:53.936Z,18.40
2022-07-28T19:05:21.987Z,18.20
2022-07-28T19:07:50.060Z,17.90
2022-07-28T19:10:17.900Z,17.60
2022-07-28T19:12:46.422Z,17.40
2022-07-28T19:15:15.619Z,17.30
2022-07-28T19:17:43.475Z,17.30
2022-07-28T19:20:12.530Z,17.30
2022-07-28T19:22:40.543Z,17.40
2022-07-28T19:25:10.201Z,17.30
2022-07-28T19:27:38.984Z,17.20
2022-07-28T19:30:08.549Z,17.10
2022-07-28T19:32:41.598Z,17.00
2022-07-28T19:35:10.385Z,16.90
2022-07-28T19:37:38.883Z,16.90
2022-07-28T19:40:08.388Z,16.80
2022-07-28T19:42:36.386Z,16.70
2022-07-28T19:45:04.489Z,16.70
2022-07-28T19:47:32.379Z,16.60
2022-07-28T19:50:07.032Z,16.50
2022-07-28T19:52:37.501Z,16.50
2022-07-28T19:55:06.939Z,16.40
2022-07-28T19:57:36.863Z,16.40
2022-07-28T20:00:07.387Z,16.40
2022-07-28T20:02:40.130Z,16.30
2022-07-28T20:05:10.804Z,16.30
2022-07-28T20:07:38.748Z,16.20
2022-07-28T20:10:07.399Z,16.10
2022-07-28T20:12:36.938Z,16.00
2022-07-28T20:15:05.288Z,15.90
2022-07-28T20:17:39.069Z,15.80
2022-07-28T20:20:10.208Z,15.80
2022-07-28T20:22:40.073Z,15.80
2022-07-28T20:25:09.870Z,15.70
2022-07-28T20:27:40.666Z,15.60
2022-07-28T20:30:09.848Z,15.60
2022-07-28T20:32:37.984Z,15.50
2022-07-28T20:35:07.161Z,15.40
2022-07-28T20:37:37.928Z,15.40
2022-07-28T20:40:07.605Z,15.30
2022-07-28T20:42:35.876Z,15.30
2022-07-28T20:45:04.971Z,15.30
2022-07-28T20:47:33.257Z,15.20
2022-07-28T20:50:01.770Z,15.10
2022-07-28T20:52:30.235Z,15.10
2022-07-28T20:54:59.407Z,15.00
2022-07-28T20:57:27.382Z,15.00
2022-07-28T20:59:55.325Z,14.90
2022-07-28T21:02:24.357Z,14.90
2022-07-28T21:04:52.494Z,14.90
2022-07-28T21:07:59.912Z,15.00
2022-07-28T21:10:11.799Z,14.90
2022-07-28T21:12:40.132Z,14.90
2022-07-28T21:15:09.558Z,14.90
2022-07-28T21:17:37.558Z,14.90
2022-07-28T21:20:06.413Z,14.90
2022-07-28T21:22:34.461Z,14.80
2022-07-28T21:25:02.300Z,14.80
2022-07-28T21:27:52.662Z,14.80
2022-07-28T21:30:19.592Z,14.80
2022-07-28T21:32:55.827Z,14.70
2022-07-28T21:35:23.745Z,14.70
2022-07-28T21:37:51.817Z,14.70
2022-07-28T21:40:19.748Z,14.70
2022-07-28T21:42:48.935Z,14.70
2022-07-28T21:45:16.776Z,14.70
2022-07-28T21:47:44.751Z,14.70
2022-07-28T21:50:13.074Z,14.60
2022-07-28T21:52:41.057Z,14.60
2022-07-28T21:55:10.536Z,14.60
2022-07-28T21:57:38.589Z,14.60
2022-07-28T22:00:10.999Z,14.60
2022-07-28T22:02:39.066Z,14.60
2022-07-28T22:05:09.585Z,14.60
2022-07-28T22:07:37.501Z,14.60
2022-07-28T22:10:06.361Z,14.60
2022-07-28T22:12:34.224Z,14.60
2022-07-28T22:15:02.142Z,14.60
2022-07-28T22:17:31.349Z,14.60
2022-07-28T22:20:00.231Z,14.60
2022-07-28T22:22:28.173Z,14.50
2022-07-28T22:24:56.038Z,14.50
2022-07-28T22:27:24.131Z,14.50
2022-07-28T22:29:52.469Z,14.40
2022-07-28T22:32:28.129Z,14.50
2022-07-28T22:34:58.786Z,14.40
2022-07-28T22:37:26.761Z,14.40
2022-07-28T22:39:54.799Z,14.30
2022-07-28T22:42:22.752Z,14.30
2022-07-28T22:44:50.575Z,14.30
2022-07-28T22:47:18.535Z,14.30
2022-07-28T22:49:46.397Z,14.30
2022-07-28T22:52:15.668Z,14.30
2022-07-28T22:54:43.501Z,14.30
2022-07-28T22:57:11.681Z,14.30
2022-07-28T22:59:39.934Z,14.30
2022-07-28T23:02:10.952Z,14.30
2022-07-28T23:04:39.586Z,14.30
2022-07-28T23:07:12.172Z,14.40
2022-07-28T23:09:43.463Z,14.40
2022-07-28T23:12:12.123Z,14.40
2022-07-28T23:14:39.974Z,14.40
2022-07-28T23:17:07.884Z,14.40
2022-07-28T23:19:35.705Z,14.40
2022-07-28T23:22:03.601Z,14.40
2022-07-28T23:24:31.530Z,14.50
2022-07-28T23:27:01.261Z,14.70
2022-07-28T23:29:29.071Z,14.70
2022-07-28T23:31:57.154Z,14.50
2022-07-28T23:34:25.094Z,14.60
2022-07-28T23:36:52.931Z,14.40
2022-07-28T23:39:20.829Z,14.50
2022-07-28T23:41:48.716Z,14.40
2022-07-28T23:44:18.335Z,14.40
2022-07-28T23:46:46.475Z,14.30
2022-07-28T23:49:14.612Z,14.40
2022-07-28T23:51:47.902Z,14.40
2022-07-28T23:54:17.050Z,14.40
2022-07-28T23:56:45.370Z,14.40
2022-07-28T23:59:14.306Z,14.40
